sensor_id;sensor_type;location;lat;lon;timestamp;pressure;altitude;pressure_sealevel;temperature;humidity
60852;BME280;48553;50.766;2.900;2023-02-28T00:00:13;102311.44;;;3.72;67.18
60852;BME280;48553;50.766;2.900;2023-02-28T00:03:14;102313.25;;;3.67;67.50
60852;BME280;48553;50.766;2.900;2023-02-28T00:06:14;102311.69;;;3.71;66.98
60852;BME280;48553;50.766;2.900;2023-02-28T00:09:15;102323.00;;;3.68;66.99
60852;BME280;48553;50.766;2.900;2023-02-28T00:12:15;102324.31;;;3.65;67.23
60852;BME280;48553;50.766;2.900;2023-02-28T00:15:16;102318.31;;;3.63;67.16
60852;BME280;48553;50.766;2.900;2023-02-28T00:18:17;102309.66;;;3.61;67.13
60852;BME280;48553;50.766;2.900;2023-02-28T00:21:19;102311.28;;;3.62;67.59
60852;BME280;48553;50.766;2.900;2023-02-28T00:24:19;102310.94;;;3.59;67.60
60852;BME280;48553;50.766;2.900;2023-02-28T00:27:20;102314.75;;;3.58;67.39
60852;BME280;48553;50.766;2.900;2023-02-28T00:30:22;102316.88;;;3.55;67.30
60852;BME280;48553;50.766;2.900;2023-02-28T00:33:23;102317.13;;;3.54;67.46
60852;BME280;48553;50.766;2.900;2023-02-28T00:36:23;102323.63;;;3.53;67.47
60852;BME280;48553;50.766;2.900;2023-02-28T00:39:24;102311.41;;;3.50;67.63
60852;BME280;48553;50.766;2.900;2023-02-28T00:42:24;102317.06;;;3.49;67.66
60852;BME280;48553;50.766;2.900;2023-02-28T00:45:25;102315.66;;;3.46;67.44
60852;BME280;48553;50.766;2.900;2023-02-28T00:48:27;102317.78;;;3.44;67.71
60852;BME280;48553;50.766;2.900;2023-02-28T00:51:28;102313.69;;;3.42;67.63
60852;BME280;48553;50.766;2.900;2023-02-28T00:54:28;102314.50;;;3.42;67.69
60852;BME280;48553;50.766;2.900;2023-02-28T00:57:29;102307.94;;;3.38;67.61
60852;BME280;48553;50.766;2.900;2023-02-28T01:00:30;102307.13;;;3.38;67.81
60852;BME280;48553;50.766;2.900;2023-02-28T01:03:30;102307.63;;;3.34;68.01
60852;BME280;48553;50.766;2.900;2023-02-28T01:06:31;102320.63;;;3.32;67.85
60852;BME280;48553;50.766;2.900;2023-02-28T01:09:31;102323.31;;;3.32;68.10
60852;BME280;48553;50.766;2.900;2023-02-28T01:12:32;102317.09;;;3.32;67.94
60852;BME280;48553;50.766;2.900;2023-02-28T01:15:32;102315.44;;;3.31;67.93
60852;BME280;48553;50.766;2.900;2023-02-28T01:18:33;102324.13;;;3.33;67.77
60852;BME280;48553;50.766;2.900;2023-02-28T01:21:33;102318.66;;;3.28;67.95
60852;BME280;48553;50.766;2.900;2023-02-28T01:24:35;102320.19;;;3.24;68.21
60852;BME280;48553;50.766;2.900;2023-02-28T01:27:35;102320.19;;;3.24;68.19
60852;BME280;48553;50.766;2.900;2023-02-28T01:30:36;102328.91;;;3.26;67.98
60852;BME280;48553;50.766;2.900;2023-02-28T01:33:37;102322.34;;;3.22;67.94
60852;BME280;48553;50.766;2.900;2023-02-28T01:36:37;102321.44;;;3.16;68.06
60852;BME280;48553;50.766;2.900;2023-02-28T01:39:38;102314.13;;;3.17;68.18
60852;BME280;48553;50.766;2.900;2023-02-28T01:42:38;102314.63;;;3.13;68.22
60852;BME280;48553;50.766;2.900;2023-02-28T01:45:39;102325.22;;;3.15;68.04
60852;BME280;48553;50.766;2.900;2023-02-28T01:48:48;102319.22;;;3.13;68.33
60852;BME280;48553;50.766;2.900;2023-02-28T01:51:54;102317.25;;;3.08;68.04
60852;BME280;48553;50.766;2.900;2023-02-28T01:54:59;102307.25;;;3.09;68.06
60852;BME280;48553;50.766;2.900;2023-02-28T01:58:02;102309.97;;;3.09;68.17
60852;BME280;48553;50.766;2.900;2023-02-28T02:01:05;102319.97;;;3.08;68.39
60852;BME280;48553;50.766;2.900;2023-02-28T02:04:05;102311.25;;;3.06;68.29
60852;BME280;48553;50.766;2.900;2023-02-28T02:07:06;102305.25;;;3.04;68.31
60852;BME280;48553;50.766;2.900;2023-02-28T02:16:26;102308.16;;;2.98;68.66
60852;BME280;48553;50.766;2.900;2023-02-28T02:23:10;102305.44;;;2.98;68.57
60852;BME280;48553;50.766;2.900;2023-02-28T02:36:02;102288.53;;;2.90;68.82
60852;BME280;48553;50.766;2.900;2023-02-28T02:39:16;102306.94;;;2.88;68.36
60852;BME280;48553;50.766;2.900;2023-02-28T02:45:56;102297.97;;;2.88;68.76
60852;BME280;48553;50.766;2.900;2023-02-28T02:49:00;102283.75;;;2.81;68.82
60852;BME280;48553;50.766;2.900;2023-02-28T02:52:07;102286.81;;;2.84;68.72
60852;BME280;48553;50.766;2.900;2023-02-28T02:55:10;102294.09;;;2.84;68.74
60852;BME280;48553;50.766;2.900;2023-02-28T02:58:14;102292.97;;;2.80;69.06
60852;BME280;48553;50.766;2.900;2023-02-28T03:01:20;102282.13;;;2.80;68.99
60852;BME280;48553;50.766;2.900;2023-02-28T03:04:34;102280.47;;;2.79;69.24
60852;BME280;48553;50.766;2.900;2023-02-28T03:07:38;102290.50;;;2.78;69.12
60852;BME280;48553;50.766;2.900;2023-02-28T03:10:41;102287.22;;;2.76;69.27
60852;BME280;48553;50.766;2.900;2023-02-28T03:23:47;102284.41;;;2.71;69.33
60852;BME280;48553;50.766;2.900;2023-02-28T03:26:58;102284.41;;;2.71;69.52
60852;BME280;48553;50.766;2.900;2023-02-28T03:30:10;102282.75;;;2.70;69.36
60852;BME280;48553;50.766;2.900;2023-02-28T03:36:28;102289.19;;;2.64;69.63
60852;BME280;48553;50.766;2.900;2023-02-28T03:39:35;102285.16;;;2.66;69.64
60852;BME280;48553;50.766;2.900;2023-02-28T03:42:41;102288.09;;;2.65;69.98
60852;BME280;48553;50.766;2.900;2023-02-28T03:45:43;102290.50;;;2.61;69.92
60852;BME280;48553;50.766;2.900;2023-02-28T03:48:53;102284.00;;;2.62;69.82
60852;BME280;48553;50.766;2.900;2023-02-28T03:51:56;102279.91;;;2.60;69.85
60852;BME280;48553;50.766;2.900;2023-02-28T03:55:03;102288.84;;;2.60;69.46
60852;BME280;48553;50.766;2.900;2023-02-28T03:58:37;102291.44;;;2.55;69.78
60852;BME280;48553;50.766;2.900;2023-02-28T04:01:45;102288.50;;;2.57;69.62
60852;BME280;48553;50.766;2.900;2023-02-28T04:04:46;102281.44;;;2.56;69.84
60852;BME280;48553;50.766;2.900;2023-02-28T04:07:48;102285.47;;;2.53;70.08
60852;BME280;48553;50.766;2.900;2023-02-28T04:10:56;102284.66;;;2.53;69.72
60852;BME280;48553;50.766;2.900;2023-02-28T04:13:58;102290.88;;;2.53;70.01
60852;BME280;48553;50.766;2.900;2023-02-28T04:16:58;102293.81;;;2.51;70.05
60852;BME280;48553;50.766;2.900;2023-02-28T04:19:59;102291.38;;;2.50;69.95
60852;BME280;48553;50.766;2.900;2023-02-28T04:22:59;102293.00;;;2.51;69.83
60852;BME280;48553;50.766;2.900;2023-02-28T04:25:59;102299.72;;;2.48;69.90
60852;BME280;48553;50.766;2.900;2023-02-28T04:29:01;102285.63;;;2.46;70.26
60852;BME280;48553;50.766;2.900;2023-02-28T04:32:02;102291.84;;;2.47;69.97
60852;BME280;48553;50.766;2.900;2023-02-28T04:35:03;102302.06;;;2.45;70.42
60852;BME280;48553;50.766;2.900;2023-02-28T04:38:04;102302.06;;;2.45;70.43
60852;BME280;48553;50.766;2.900;2023-02-28T04:41:04;102313.47;;;2.47;70.29
60852;BME280;48553;50.766;2.900;2023-02-28T04:44:05;102313.97;;;2.44;70.41
60852;BME280;48553;50.766;2.900;2023-02-28T04:47:06;102318.56;;;2.43;70.21
60852;BME280;48553;50.766;2.900;2023-02-28T04:50:07;102324.22;;;2.42;70.39
60852;BME280;48553;50.766;2.900;2023-02-28T04:53:07;102324.22;;;2.42;70.42
60852;BME280;48553;50.766;2.900;2023-02-28T04:56:11;102326.13;;;2.41;70.81
60852;BME280;48553;50.766;2.900;2023-02-28T04:59:12;102325.28;;;2.41;70.83
60852;BME280;48553;50.766;2.900;2023-02-28T05:02:12;102325.28;;;2.41;70.52
60852;BME280;48553;50.766;2.900;2023-02-28T05:05:13;102324.94;;;2.37;70.73
60852;BME280;48553;50.766;2.900;2023-02-28T05:08:18;102337.16;;;2.40;70.88
60852;BME280;48553;50.766;2.900;2023-02-28T05:11:27;102329.84;;;2.40;71.23
60852;BME280;48553;50.766;2.900;2023-02-28T05:14:29;102328.81;;;2.41;70.91
60852;BME280;48553;50.766;2.900;2023-02-28T05:17:29;102324.44;;;2.40;71.11
60852;BME280;48553;50.766;2.900;2023-02-28T05:20:30;102324.44;;;2.40;71.48
60852;BME280;48553;50.766;2.900;2023-02-28T05:23:30;102318.81;;;2.42;71.48
60852;BME280;48553;50.766;2.900;2023-02-28T05:26:35;102328.56;;;2.43;71.46
60852;BME280;48553;50.766;2.900;2023-02-28T05:29:36;102329.03;;;2.40;71.72
60852;BME280;48553;50.766;2.900;2023-02-28T05:32:41;102322.31;;;2.42;71.74
60852;BME280;48553;50.766;2.900;2023-02-28T05:35:45;102329.41;;;2.43;71.66
60852;BME280;48553;50.766;2.900;2023-02-28T05:38:46;102328.56;;;2.43;71.69
60852;BME280;48553;50.766;2.900;2023-02-28T05:41:47;102329.41;;;2.43;71.84
60852;BME280;48553;50.766;2.900;2023-02-28T05:44:48;102336.22;;;2.46;71.80
60852;BME280;48553;50.766;2.900;2023-02-28T05:47:48;102338.66;;;2.47;71.58
60852;BME280;48553;50.766;2.900;2023-02-28T05:50:49;102337.03;;;2.46;72.06
60852;BME280;48553;50.766;2.900;2023-02-28T05:53:49;102339.97;;;2.45;71.82
60852;BME280;48553;50.766;2.900;2023-02-28T05:56:49;102335.94;;;2.47;72.12
60852;BME280;48553;50.766;2.900;2023-02-28T05:59:50;102341.84;;;2.44;72.47
60852;BME280;48553;50.766;2.900;2023-02-28T06:02:51;102340.31;;;2.48;72.26
60852;BME280;48553;50.766;2.900;2023-02-28T06:05:53;102342.78;;;2.50;72.11
60852;BME280;48553;50.766;2.900;2023-02-28T06:08:54;102337.94;;;2.52;72.23
60852;BME280;48553;50.766;2.900;2023-02-28T06:11:56;102335.47;;;2.50;72.30
60852;BME280;48553;50.766;2.900;2023-02-28T06:14:57;102340.91;;;2.50;72.51
60852;BME280;48553;50.766;2.900;2023-02-28T06:17:58;102348.19;;;2.50;72.58
60852;BME280;48553;50.766;2.900;2023-02-28T06:20:58;102344.06;;;2.47;72.40
60852;BME280;48553;50.766;2.900;2023-02-28T06:23:59;102347.94;;;2.51;72.66
60852;BME280;48553;50.766;2.900;2023-02-28T06:26:59;102350.63;;;2.51;72.34
60852;BME280;48553;50.766;2.900;2023-02-28T06:30:05;102355.00;;;2.53;72.67
60852;BME280;48553;50.766;2.900;2023-02-28T06:33:06;102349.81;;;2.51;72.45
60852;BME280;48553;50.766;2.900;2023-02-28T06:36:07;102356.63;;;2.54;72.82
60852;BME280;48553;50.766;2.900;2023-02-28T06:39:08;102354.75;;;2.54;72.50
60852;BME280;48553;50.766;2.900;2023-02-28T06:42:09;102354.75;;;2.54;72.38
60852;BME280;48553;50.766;2.900;2023-02-28T06:45:10;102359.91;;;2.56;72.59
60852;BME280;48553;50.766;2.900;2023-02-28T06:48:11;102351.00;;;2.55;72.64
60852;BME280;48553;50.766;2.900;2023-02-28T06:51:15;102349.09;;;2.56;72.85
60852;BME280;48553;50.766;2.900;2023-02-28T06:54:16;102362.03;;;2.54;73.00
60852;BME280;48553;50.766;2.900;2023-02-28T06:57:16;102360.16;;;2.54;72.79
60852;BME280;48553;50.766;2.900;2023-02-28T07:00:17;102358.88;;;2.57;72.93
60852;BME280;48553;50.766;2.900;2023-02-28T07:03:17;102367.22;;;2.55;73.48
60852;BME280;48553;50.766;2.900;2023-02-28T07:06:22;102366.50;;;2.60;72.93
60852;BME280;48553;50.766;2.900;2023-02-28T07:09:23;102359.44;;;2.59;72.95
60852;BME280;48553;50.766;2.900;2023-02-28T07:12:23;102357.31;;;2.61;73.01
60852;BME280;48553;50.766;2.900;2023-02-28T07:15:24;102358.16;;;2.61;73.07
60852;BME280;48553;50.766;2.900;2023-02-28T07:18:25;102371.34;;;2.58;73.20
60852;BME280;48553;50.766;2.900;2023-02-28T07:21:25;102369.78;;;2.62;73.10
60852;BME280;48553;50.766;2.900;2023-02-28T07:24:25;102367.09;;;2.62;73.14
60852;BME280;48553;50.766;2.900;2023-02-28T07:27:28;102370.59;;;2.62;73.62
60852;BME280;48553;50.766;2.900;2023-02-28T07:30:28;102367.66;;;2.64;73.86
60852;BME280;48553;50.766;2.900;2023-02-28T07:33:29;102363.88;;;2.65;73.74
60852;BME280;48553;50.766;2.900;2023-02-28T07:36:29;102361.19;;;2.65;73.51
60852;BME280;48553;50.766;2.900;2023-02-28T07:39:30;102360.94;;;2.66;73.52
60852;BME280;48553;50.766;2.900;2023-02-28T07:42:30;102357.97;;;2.68;73.55
60852;BME280;48553;50.766;2.900;2023-02-28T07:45:31;102354.22;;;2.69;73.77
60852;BME280;48553;50.766;2.900;2023-02-28T07:48:34;102366.69;;;2.70;73.85
60852;BME280;48553;50.766;2.900;2023-02-28T07:51:34;102366.22;;;2.73;73.52
60852;BME280;48553;50.766;2.900;2023-02-28T07:54:35;102365.94;;;2.75;73.50
60852;BME280;48553;50.766;2.900;2023-02-28T07:57:36;102368.41;;;2.76;73.43
60852;BME280;48553;50.766;2.900;2023-02-28T08:00:36;102370.09;;;2.77;73.81
60852;BME280;48553;50.766;2.900;2023-02-28T08:03:38;102374.66;;;2.77;73.86
60852;BME280;48553;50.766;2.900;2023-02-28T08:06:39;102373.59;;;2.78;73.73
60852;BME280;48553;50.766;2.900;2023-02-28T08:09:40;102373.59;;;2.78;74.05
60852;BME280;48553;50.766;2.900;2023-02-28T08:12:40;102364.16;;;2.80;73.86
60852;BME280;48553;50.766;2.900;2023-02-28T08:15:41;102373.91;;;2.81;74.06
60852;BME280;48553;50.766;2.900;2023-02-28T08:18:43;102369.09;;;2.83;73.91
60852;BME280;48553;50.766;2.900;2023-02-28T08:21:43;102369.66;;;2.85;73.88
60852;BME280;48553;50.766;2.900;2023-02-28T08:24:44;102376.25;;;2.89;73.70
60852;BME280;48553;50.766;2.900;2023-02-28T08:27:44;102376.25;;;2.89;73.76
60852;BME280;48553;50.766;2.900;2023-02-28T08:30:45;102371.19;;;2.93;73.80
60852;BME280;48553;50.766;2.900;2023-02-28T08:33:45;102362.78;;;2.95;73.89
60852;BME280;48553;50.766;2.900;2023-02-28T08:36:48;102358.31;;;3.00;73.86
60852;BME280;48553;50.766;2.900;2023-02-28T08:39:49;102362.63;;;3.01;74.03
60852;BME280;48553;50.766;2.900;2023-02-28T08:42:49;102351.31;;;3.04;73.84
60852;BME280;48553;50.766;2.900;2023-02-28T08:45:54;102366.84;;;3.09;73.88
60852;BME280;48553;50.766;2.900;2023-02-28T08:48:56;102357.88;;;3.08;74.02
60852;BME280;48553;50.766;2.900;2023-02-28T08:52:01;102355.75;;;3.10;74.14
60852;BME280;48553;50.766;2.900;2023-02-28T08:55:02;102371.75;;;3.12;73.86
60852;BME280;48553;50.766;2.900;2023-02-28T08:58:02;102378.50;;;3.09;74.21
60852;BME280;48553;50.766;2.900;2023-02-28T09:01:11;102374.72;;;3.10;74.22
60852;BME280;48553;50.766;2.900;2023-02-28T09:04:12;102378.00;;;3.12;73.99
60852;BME280;48553;50.766;2.900;2023-02-28T09:07:12;102386.13;;;3.12;74.33
60852;BME280;48553;50.766;2.900;2023-02-28T09:10:13;102378.00;;;3.12;74.01
60852;BME280;48553;50.766;2.900;2023-02-28T09:13:13;102382.38;;;3.13;74.20
60852;BME280;48553;50.766;2.900;2023-02-28T09:16:15;102376.69;;;3.15;73.87
60852;BME280;48553;50.766;2.900;2023-02-28T09:19:16;102387.50;;;3.15;74.18
60852;BME280;48553;50.766;2.900;2023-02-28T09:22:16;102371.25;;;3.15;73.95
60852;BME280;48553;50.766;2.900;2023-02-28T09:25:17;102375.13;;;3.19;74.05
60852;BME280;48553;50.766;2.900;2023-02-28T09:28:18;102384.06;;;3.20;74.02
60852;BME280;48553;50.766;2.900;2023-02-28T09:31:21;102378.91;;;3.18;73.89
60852;BME280;48553;50.766;2.900;2023-02-28T09:34:22;102380.31;;;3.21;73.67
60852;BME280;48553;50.766;2.900;2023-02-28T09:37:22;102384.41;;;3.23;73.65
60852;BME280;48553;50.766;2.900;2023-02-28T09:40:24;102390.88;;;3.22;74.09
60852;BME280;48553;50.766;2.900;2023-02-28T09:43:33;102383.84;;;3.21;73.57
60852;BME280;48553;50.766;2.900;2023-02-28T09:46:42;102377.34;;;3.22;73.96
60852;BME280;48553;50.766;2.900;2023-02-28T09:49:46;102378.75;;;3.25;73.90
60852;BME280;48553;50.766;2.900;2023-02-28T09:52:48;102375.78;;;3.26;74.16
60852;BME280;48553;50.766;2.900;2023-02-28T09:56:03;102369.78;;;3.24;73.95
60852;BME280;48553;50.766;2.900;2023-02-28T10:05:43;102384.50;;;3.28;73.88
60852;BME280;48553;50.766;2.900;2023-02-28T10:09:02;102376.34;;;3.28;74.06
60852;BME280;48553;50.766;2.900;2023-02-28T10:12:05;102375.03;;;3.31;74.04
60852;BME280;48553;50.766;2.900;2023-02-28T10:15:08;102375.63;;;3.33;74.19
60852;BME280;48553;50.766;2.900;2023-02-28T10:18:15;102373.47;;;3.35;73.80
60852;BME280;48553;50.766;2.900;2023-02-28T10:21:23;102371.84;;;3.34;74.17
60852;BME280;48553;50.766;2.900;2023-02-28T10:24:43;102368.31;;;3.33;74.26
60852;BME280;48553;50.766;2.900;2023-02-28T10:27:44;102366.44;;;3.34;74.39
60852;BME280;48553;50.766;2.900;2023-02-28T10:30:51;102367.81;;;3.37;74.39
60852;BME280;48553;50.766;2.900;2023-02-28T10:33:51;102354.28;;;3.37;74.34
60852;BME280;48553;50.766;2.900;2023-02-28T10:36:52;102351.88;;;3.40;74.46
60852;BME280;48553;50.766;2.900;2023-02-28T10:39:53;102344.31;;;3.42;74.07
60852;BME280;48553;50.766;2.900;2023-02-28T10:46:18;102349.28;;;3.45;74.51
60852;BME280;48553;50.766;2.900;2023-02-28T10:49:27;102340.88;;;3.47;74.09
60852;BME280;48553;50.766;2.900;2023-02-28T10:52:41;102340.88;;;3.47;74.16
60852;BME280;48553;50.766;2.900;2023-02-28T10:55:41;102327.91;;;3.49;74.14
60852;BME280;48553;50.766;2.900;2023-02-28T10:58:56;102329.28;;;3.51;74.24
60852;BME280;48553;50.766;2.900;2023-02-28T11:01:57;102312.53;;;3.54;74.25
60852;BME280;48553;50.766;2.900;2023-02-28T11:04:58;102314.50;;;3.59;74.19
60852;BME280;48553;50.766;2.900;2023-02-28T11:08:18;102317.78;;;3.61;74.29
60852;BME280;48553;50.766;2.900;2023-02-28T11:11:20;102320.78;;;3.65;74.32
60852;BME280;48553;50.766;2.900;2023-02-28T11:14:24;102307.81;;;3.67;74.08
60852;BME280;48553;50.766;2.900;2023-02-28T11:17:29;102312.16;;;3.68;73.96
60852;BME280;48553;50.766;2.900;2023-02-28T11:20:32;102303.28;;;3.72;73.85
60852;BME280;48553;50.766;2.900;2023-02-28T11:23:34;102297.38;;;3.75;73.68
60852;BME280;48553;50.766;2.900;2023-02-28T11:26:47;102298.22;;;3.81;73.64
60852;BME280;48553;50.766;2.900;2023-02-28T11:29:50;102289.09;;;3.87;73.54
60852;BME280;48553;50.766;2.900;2023-02-28T11:32:51;102295.91;;;3.90;73.37
60852;BME280;48553;50.766;2.900;2023-02-28T11:35:52;102290.53;;;3.95;73.35
60852;BME280;48553;50.766;2.900;2023-02-28T11:38:56;102281.97;;;4.03;73.20
60852;BME280;48553;50.766;2.900;2023-02-28T11:45:36;102280.69;;;4.38;72.39
60852;BME280;48553;50.766;2.900;2023-02-28T11:48:53;102265.06;;;4.45;72.19
60852;BME280;48553;50.766;2.900;2023-02-28T11:52:01;102271.13;;;4.57;72.35
60852;BME280;48553;50.766;2.900;2023-02-28T11:55:17;102271.16;;;4.63;71.89
60852;BME280;48553;50.766;2.900;2023-02-28T12:08:47;102261.41;;;4.99;70.91
60852;BME280;48553;50.766;2.900;2023-02-28T12:11:56;102260.97;;;5.12;70.70
60852;BME280;48553;50.766;2.900;2023-02-28T12:25:13;102234.75;;;5.96;68.92
60852;BME280;48553;50.766;2.900;2023-02-28T12:28:19;102229.38;;;6.17;68.73
60852;BME280;48553;50.766;2.900;2023-02-28T12:31:29;102231.31;;;6.32;68.20
60852;BME280;48553;50.766;2.900;2023-02-28T12:34:35;102214.69;;;6.48;68.08
60852;BME280;48553;50.766;2.900;2023-02-28T12:37:57;102222.06;;;6.48;67.96
60852;BME280;48553;50.766;2.900;2023-02-28T12:41:04;102200.00;;;6.50;68.07
60852;BME280;48553;50.766;2.900;2023-02-28T12:44:16;102193.16;;;6.67;67.69
60852;BME280;48553;50.766;2.900;2023-02-28T12:47:18;102189.88;;;6.81;67.77
60852;BME280;48553;50.766;2.900;2023-02-28T12:50:19;102186.88;;;6.93;67.24
60852;BME280;48553;50.766;2.900;2023-02-28T12:53:41;102195.59;;;6.89;67.43
60852;BME280;48553;50.766;2.900;2023-02-28T12:56:53;102188.25;;;6.85;67.53
60852;BME280;48553;50.766;2.900;2023-02-28T13:00:11;102180.06;;;6.95;66.59
60852;BME280;48553;50.766;2.900;2023-02-28T13:07:06;102171.84;;;7.16;66.98
60852;BME280;48553;50.766;2.900;2023-02-28T13:10:10;102158.16;;;7.26;66.90
60852;BME280;48553;50.766;2.900;2023-02-28T13:13:20;102154.56;;;7.36;66.49
60852;BME280;48553;50.766;2.900;2023-02-28T13:16:21;102156.47;;;7.45;66.16
60852;BME280;48553;50.766;2.900;2023-02-28T13:19:22;102143.59;;;7.51;65.76
60852;BME280;48553;50.766;2.900;2023-02-28T13:22:44;102151.22;;;7.59;66.46
60852;BME280;48553;50.766;2.900;2023-02-28T13:38:16;102133.84;;;7.89;65.17
60852;BME280;48553;50.766;2.900;2023-02-28T13:44:29;102123.66;;;8.00;64.90
60852;BME280;48553;50.766;2.900;2023-02-28T13:50:37;102121.94;;;8.09;64.90
60852;BME280;48553;50.766;2.900;2023-02-28T13:53:57;102116.75;;;8.13;64.74
60852;BME280;48553;50.766;2.900;2023-02-28T14:07:18;102118.53;;;8.28;64.32
60852;BME280;48553;50.766;2.900;2023-02-28T14:10:41;102106.78;;;8.27;64.39
60852;BME280;48553;50.766;2.900;2023-02-28T14:13:45;102128.06;;;8.30;64.54
60852;BME280;48553;50.766;2.900;2023-02-28T14:16:47;102105.94;;;8.32;64.39
60852;BME280;48553;50.766;2.900;2023-02-28T14:19:50;102115.47;;;8.34;64.30
60852;BME280;48553;50.766;2.900;2023-02-28T14:23:36;102108.88;;;8.35;64.45
60852;BME280;48553;50.766;2.900;2023-02-28T14:33:31;102116.91;;;8.27;63.45
60852;BME280;48553;50.766;2.900;2023-02-28T14:36:37;102114.78;;;8.19;63.84
60852;BME280;48553;50.766;2.900;2023-02-28T14:39:41;102117.34;;;8.05;64.62
60852;BME280;48553;50.766;2.900;2023-02-28T14:42:47;102116.53;;;8.04;63.76
60852;BME280;48553;50.766;2.900;2023-02-28T14:45:59;102116.81;;;8.03;64.14
60852;BME280;48553;50.766;2.900;2023-02-28T14:49:00;102110.53;;;8.02;63.81
60852;BME280;48553;50.766;2.900;2023-02-28T14:52:15;102124.78;;;7.94;64.21
60852;BME280;48553;50.766;2.900;2023-02-28T14:55:18;102119.59;;;7.92;64.71
60852;BME280;48553;50.766;2.900;2023-02-28T14:58:26;102106.78;;;7.93;63.90
60852;BME280;48553;50.766;2.900;2023-02-28T15:01:27;102110.34;;;7.93;64.33
60852;BME280;48553;50.766;2.900;2023-02-28T15:04:28;102109.25;;;7.89;64.38
60852;BME280;48553;50.766;2.900;2023-02-28T15:07:31;102105.47;;;7.85;63.80
60852;BME280;48553;50.766;2.900;2023-02-28T15:10:31;102108.19;;;7.85;61.48
60852;BME280;48553;50.766;2.900;2023-02-28T15:13:39;102119.16;;;7.80;63.73
60852;BME280;48553;50.766;2.900;2023-02-28T15:16:42;102120.00;;;7.76;62.76
60852;BME280;48553;50.766;2.900;2023-02-28T15:19:51;102115.94;;;7.73;62.17
60852;BME280;48553;50.766;2.900;2023-02-28T15:22:55;102119.50;;;7.68;62.99
60852;BME280;48553;50.766;2.900;2023-02-28T15:25:57;102116.50;;;7.65;62.33
60852;BME280;48553;50.766;2.900;2023-02-28T15:29:05;102128.00;;;7.62;62.58
60852;BME280;48553;50.766;2.900;2023-02-28T15:32:07;102113.91;;;7.49;61.05
60852;BME280;48553;50.766;2.900;2023-02-28T15:38:27;102132.25;;;7.28;60.81
60852;BME280;48553;50.766;2.900;2023-02-28T15:41:36;102126.28;;;7.21;62.07
60852;BME280;48553;50.766;2.900;2023-02-28T15:44:40;102129.31;;;7.15;61.72
60852;BME280;48553;50.766;2.900;2023-02-28T15:47:45;102127.41;;;7.10;61.49
60852;BME280;48553;50.766;2.900;2023-02-28T15:50:54;102132.63;;;7.01;61.28
60852;BME280;48553;50.766;2.900;2023-02-28T15:54:05;102128.84;;;6.97;61.74
60852;BME280;48553;50.766;2.900;2023-02-28T15:57:13;102131.56;;;6.87;61.06
60852;BME280;48553;50.766;2.900;2023-02-28T16:00:19;102133.22;;;6.83;61.63
60852;BME280;48553;50.766;2.900;2023-02-28T16:03:27;102132.41;;;6.72;60.33
60852;BME280;48553;50.766;2.900;2023-02-28T16:07:12;102126.44;;;6.65;60.56
60852;BME280;48553;50.766;2.900;2023-02-28T16:10:12;102134.91;;;6.53;59.56
60852;BME280;48553;50.766;2.900;2023-02-28T16:13:16;102142.81;;;6.50;60.05
60852;BME280;48553;50.766;2.900;2023-02-28T16:16:21;102137.91;;;6.41;59.67
60852;BME280;48553;50.766;2.900;2023-02-28T16:19:23;102141.19;;;6.38;59.84
60852;BME280;48553;50.766;2.900;2023-02-28T16:22:24;102142.28;;;6.32;59.58
60852;BME280;48553;50.766;2.900;2023-02-28T16:25:33;102145.81;;;6.27;59.45
60852;BME280;48553;50.766;2.900;2023-02-28T16:28:36;102145.28;;;6.20;58.72
60852;BME280;48553;50.766;2.900;2023-02-28T16:31:38;102147.16;;;6.15;59.02
60852;BME280;48553;50.766;2.900;2023-02-28T16:34:39;102161.31;;;6.12;59.38
60852;BME280;48553;50.766;2.900;2023-02-28T16:37:40;102163.75;;;6.08;59.23
60852;BME280;48553;50.766;2.900;2023-02-28T16:40:41;102158.03;;;5.99;59.25
60852;BME280;48553;50.766;2.900;2023-02-28T16:43:41;102170.00;;;5.98;59.65
60852;BME280;48553;50.766;2.900;2023-02-28T16:46:43;102172.69;;;5.93;59.18
60852;BME280;48553;50.766;2.900;2023-02-28T16:49:44;102169.94;;;5.88;58.97
60852;BME280;48553;50.766;2.900;2023-02-28T16:52:45;102166.94;;;5.84;59.49
60852;BME280;48553;50.766;2.900;2023-02-28T16:55:45;102168.88;;;5.84;60.13
60852;BME280;48553;50.766;2.900;2023-02-28T16:58:48;102166.41;;;5.82;60.23
60852;BME280;48553;50.766;2.900;2023-02-28T17:01:49;102182.44;;;5.79;60.42
60852;BME280;48553;50.766;2.900;2023-02-28T17:04:50;102175.38;;;5.73;59.99
60852;BME280;48553;50.766;2.900;2023-02-28T17:07:51;102177.53;;;5.71;59.40
60852;BME280;48553;50.766;2.900;2023-02-28T17:10:51;102172.88;;;5.66;59.47
60852;BME280;48553;50.766;2.900;2023-02-28T17:13:52;102179.41;;;5.65;59.81
60852;BME280;48553;50.766;2.900;2023-02-28T17:16:54;102189.72;;;5.63;59.50
60852;BME280;48553;50.766;2.900;2023-02-28T17:19:54;102191.06;;;5.55;59.39
60852;BME280;48553;50.766;2.900;2023-02-28T17:22:55;102206.03;;;5.53;59.64
60852;BME280;48553;50.766;2.900;2023-02-28T17:25:56;102202.72;;;5.46;59.70
60852;BME280;48553;50.766;2.900;2023-02-28T17:28:57;102204.06;;;5.43;59.93
60852;BME280;48553;50.766;2.900;2023-02-28T17:31:57;102208.41;;;5.39;60.29
60852;BME280;48553;50.766;2.900;2023-02-28T17:34:57;102212.75;;;5.40;60.12
60852;BME280;48553;50.766;2.900;2023-02-28T17:37:58;102216.00;;;5.37;60.47
60852;BME280;48553;50.766;2.900;2023-02-28T17:40:58;102215.69;;;5.33;60.42
60852;BME280;48553;50.766;2.900;2023-02-28T17:43:59;102222.78;;;5.29;60.70
60852;BME280;48553;50.766;2.900;2023-02-28T17:46:59;102216.78;;;5.27;60.50
60852;BME280;48553;50.766;2.900;2023-02-28T17:50:00;102223.56;;;5.25;60.97
60852;BME280;48553;50.766;2.900;2023-02-28T17:53:00;102233.25;;;5.15;60.64
60852;BME280;48553;50.766;2.900;2023-02-28T17:56:01;102234.91;;;5.16;60.92
60852;BME280;48553;50.766;2.900;2023-02-28T17:59:02;102239.78;;;5.14;60.97
60852;BME280;48553;50.766;2.900;2023-02-28T18:02:03;102234.88;;;5.11;61.08
60852;BME280;48553;50.766;2.900;2023-02-28T18:05:04;102234.59;;;5.08;61.30